Time;durP1;ratioP1;P1;durP2;ratioP2;P2;SDS_P1;SDS_P2;PMS_P1;PMS_P2;Temp;Humidity;BMP_temperature;BMP_pressure;BME280_temperature;BME280_humidity;BME280_pressure;Samples;Min_cycle;Max_cycle;Signal;HPM_P1;HPM_P2
2024/04/05 00:00:14;;;;;;;16.55;2.50;;;7.90;99.90;;;;;;5004624;28;20038;-62
2024/04/05 00:03:00;;;;;;;23.05;3.30;;;7.90;99.90;;;;;;5013210;28;20506;-62
2024/04/05 00:05:46;;;;;;;24.98;3.75;;;7.90;99.90;;;;;;5017743;28;20040;-62
2024/04/05 00:08:33;;;;;;;16.33;3.63;;;8.00;99.90;;;;;;5020638;28;20034;-62
2024/04/05 00:11:19;;;;;;;22.70;3.63;;;8.10;99.90;;;;;;5014165;28;20030;-62
2024/04/05 00:14:05;;;;;;;16.35;2.80;;;8.10;99.90;;;;;;5020550;28;20033;-62
2024/04/05 00:16:51;;;;;;;19.73;3.50;;;8.00;99.90;;;;;;5016632;28;20037;-62
2024/04/05 00:19:36;;;;;;;17.10;2.97;;;8.00;99.90;;;;;;5006833;28;20045;-62
2024/04/05 00:22:22;;;;;;;22.52;3.40;;;8.00;99.90;;;;;;5004926;28;20715;-62
2024/04/05 00:25:08;;;;;;;21.70;3.53;;;7.90;99.90;;;;;;5000779;28;20117;-62
2024/04/05 00:27:54;;;;;;;14.70;2.40;;;7.90;99.90;;;;;;5002493;28;20034;-62
2024/04/05 00:30:40;;;;;;;26.65;3.22;;;8.00;99.90;;;;;;5003373;28;20491;-62
2024/04/05 00:33:26;;;;;;;17.25;2.95;;;8.00;99.90;;;;;;5005965;28;20083;-62
2024/04/05 00:36:15;;;;;;;15.45;2.88;;;8.00;99.90;;;;;;5002810;28;20044;-62
2024/04/05 00:39:01;;;;;;;14.27;3.13;;;8.00;99.90;;;;;;5003209;28;20030;-62
2024/04/05 00:41:46;;;;;;;22.80;2.80;;;8.00;99.90;;;;;;5007003;28;20030;-62
2024/04/05 00:44:33;;;;;;;18.50;2.63;;;8.10;99.90;;;;;;5005217;28;20042;-62
2024/04/05 00:47:19;;;;;;;12.30;2.60;;;8.20;99.90;;;;;;5007162;28;20068;-62
2024/04/05 00:50:06;;;;;;;19.00;3.17;;;8.20;99.90;;;;;;5004435;28;20128;-62
2024/04/05 00:52:52;;;;;;;16.55;2.80;;;8.20;99.90;;;;;;5000827;28;20121;-62
2024/04/05 00:55:39;;;;;;;18.80;2.75;;;8.30;99.90;;;;;;5002967;28;20052;-62
2024/04/05 00:58:25;;;;;;;19.23;2.83;;;8.30;99.90;;;;;;5007204;28;20042;-62
2024/04/05 01:01:12;;;;;;;20.15;4.05;;;8.30;99.90;;;;;;4999626;28;20034;-63
2024/04/05 01:03:58;;;;;;;22.13;3.15;;;8.40;99.90;;;;;;5003092;28;20758;-63
2024/04/05 01:06:44;;;;;;;26.38;2.65;;;8.40;99.90;;;;;;5003093;28;20051;-62
2024/04/05 01:09:31;;;;;;;17.42;3.00;;;8.40;99.90;;;;;;5004698;28;20121;-62
2024/04/05 01:12:17;;;;;;;15.32;2.55;;;8.50;99.90;;;;;;5002809;28;20026;-62
2024/04/05 01:15:03;;;;;;;16.02;2.40;;;8.50;99.90;;;;;;5003890;28;20381;-62
2024/04/05 01:17:50;;;;;;;17.25;3.08;;;8.60;99.90;;;;;;5005852;28;20038;-61
2024/04/05 01:20:36;;;;;;;;;;;8.60;99.90;;;;;;5001242;28;20049;-63
2024/04/05 01:23:24;;;;;;;10.23;2.42;;;8.70;99.90;;;;;;5004755;28;19921;-62
2024/04/05 01:26:10;;;;;;;16.90;2.75;;;8.70;99.90;;;;;;5007307;28;20037;-62
2024/04/05 01:28:55;;;;;;;17.02;2.95;;;8.70;99.90;;;;;;5003696;28;20037;-63
2024/04/05 01:31:41;;;;;;;21.48;4.05;;;8.70;99.90;;;;;;5006766;28;20117;-62
2024/04/05 01:34:27;;;;;;;18.13;3.70;;;8.60;99.90;;;;;;5007244;28;20067;-62
2024/04/05 01:37:13;;;;;;;13.43;3.57;;;8.70;99.90;;;;;;5002260;28;20045;-62
2024/04/05 01:39:59;;;;;;;16.25;3.50;;;8.70;99.90;;;;;;5001395;28;20038;-62
2024/04/05 01:42:45;;;;;;;20.83;3.28;;;8.70;99.90;;;;;;5003436;28;20056;-62
2024/04/05 01:45:31;;;;;;;15.03;2.90;;;8.70;99.90;;;;;;5000522;28;20041;-62
2024/04/05 01:48:17;;;;;;;17.38;3.20;;;8.70;99.90;;;;;;5005266;28;20770;-62
2024/04/05 01:51:03;;;;;;;15.45;2.80;;;8.70;99.90;;;;;;5000941;28;20091;-60
2024/04/05 01:53:49;;;;;;;15.90;2.35;;;8.70;99.90;;;;;;5003232;28;20021;-62
2024/04/05 01:56:35;;;;;;;19.75;2.80;;;8.70;99.90;;;;;;4997923;28;20537;-62
2024/04/05 01:59:21;;;;;;;16.27;3.33;;;8.70;99.90;;;;;;5004563;28;20100;-62
2024/04/05 02:02:07;;;;;;;17.58;2.95;;;8.70;99.90;;;;;;5001647;28;20030;-62
2024/04/05 02:04:53;;;;;;;12.05;2.67;;;8.70;99.90;;;;;;5004448;28;20487;-62
2024/04/05 02:07:39;;;;;;;15.80;3.65;;;8.80;99.90;;;;;;5005693;28;20037;-62
2024/04/05 02:10:25;;;;;;;14.15;2.72;;;8.80;99.90;;;;;;4999084;28;20057;-62
2024/04/05 02:13:11;;;;;;;13.27;2.97;;;8.80;99.90;;;;;;5008597;28;20029;-62
2024/04/05 02:15:57;;;;;;;21.30;2.73;;;8.90;99.90;;;;;;4996589;28;20072;-62
2024/04/05 02:18:43;;;;;;;22.13;3.85;;;9.00;99.90;;;;;;5004274;28;20292;-62
2024/04/05 02:21:30;;;;;;;17.00;3.63;;;9.10;99.90;;;;;;4999673;28;20041;-62
2024/04/05 02:24:16;;;;;;;14.27;3.63;;;9.10;99.90;;;;;;5002515;28;20583;-62
2024/04/05 02:27:02;;;;;;;17.65;3.53;;;9.20;99.90;;;;;;5006620;28;20033;-62
2024/04/05 02:29:49;;;;;;;25.40;3.90;;;9.20;99.90;;;;;;5002927;28;20403;-62
2024/04/05 02:32:35;;;;;;;22.48;3.83;;;9.20;99.90;;;;;;5003297;28;20030;-62
2024/04/05 02:35:20;;;;;;;15.40;3.70;;;9.20;99.90;;;;;;5000532;28;20728;-62
2024/04/05 02:38:06;;;;;;;23.27;4.35;;;9.30;99.90;;;;;;5004464;28;20108;-62
2024/04/05 02:40:53;;;;;;;20.30;3.72;;;9.40;99.90;;;;;;5001188;28;20164;-62
2024/04/05 02:43:39;;;;;;;21.55;3.33;;;9.40;99.90;;;;;;5004051;28;20030;-62
2024/04/05 02:46:25;;;;;;;20.02;3.88;;;9.40;99.90;;;;;;5001222;28;20050;-62
2024/04/05 02:49:11;;;;;;;15.13;3.60;;;9.40;99.90;;;;;;5008716;28;20032;-62
2024/04/05 02:51:57;;;;;;;14.95;3.38;;;9.40;99.90;;;;;;4998790;28;20364;-62
2024/04/05 02:54:43;;;;;;;17.08;3.80;;;9.50;99.90;;;;;;5001907;28;20041;-62
2024/04/05 02:57:29;;;;;;;19.77;3.30;;;9.50;99.90;;;;;;5007883;28;20045;-62
2024/04/05 03:00:15;;;;;;;16.88;3.28;;;9.60;99.90;;;;;;4998846;28;20543;-63
2024/04/05 03:03:01;;;;;;;12.93;2.90;;;9.60;99.90;;;;;;5006623;28;20498;-62
2024/04/05 03:05:47;;;;;;;17.17;2.97;;;9.60;99.90;;;;;;4998315;28;20387;-63
2024/04/05 03:08:34;;;;;;;18.67;2.67;;;9.60;99.90;;;;;;5002646;28;20103;-62
2024/04/05 03:11:20;;;;;;;14.65;3.90;;;9.70;99.90;;;;;;4998785;28;20042;-62
2024/04/05 03:14:06;;;;;;;19.83;3.30;;;9.70;99.90;;;;;;5003123;28;20079;-62
2024/04/05 03:16:53;;;;;;;19.73;3.30;;;9.70;99.90;;;;;;5002913;28;20046;-62
2024/04/05 03:19:40;;;;;;;21.20;2.85;;;9.80;99.90;;;;;;4998744;28;20072;-62
2024/04/05 03:22:27;;;;;;;18.70;3.13;;;9.80;99.90;;;;;;4999954;28;20115;-62
2024/04/05 03:25:13;;;;;;;17.50;3.05;;;9.90;99.90;;;;;;4998122;28;20038;-62
2024/04/05 03:27:59;;;;;;;12.15;2.63;;;9.90;99.90;;;;;;5003643;28;20040;-62
2024/04/05 03:30:45;;;;;;;14.77;3.20;;;9.90;99.90;;;;;;5009918;28;20132;-62
2024/04/05 03:33:32;;;;;;;23.85;5.10;;;9.90;99.90;;;;;;5046703;28;20125;-62
2024/04/05 03:36:17;;;;;;;16.60;3.67;;;9.90;99.90;;;;;;5037300;28;20055;-62
2024/04/05 03:39:03;;;;;;;24.60;3.63;;;10.00;99.90;;;;;;5043620;28;20040;-62
2024/04/05 03:41:49;;;;;;;18.30;3.95;;;10.00;99.90;;;;;;5044175;28;20041;-62
2024/04/05 03:44:35;;;;;;;13.32;3.80;;;10.00;99.90;;;;;;5048779;28;20045;-62
2024/04/05 03:47:21;;;;;;;16.05;3.10;;;10.00;99.90;;;;;;5041519;28;20414;-62
2024/04/05 03:50:07;;;;;;;24.80;4.07;;;10.00;99.90;;;;;;5043885;28;20610;-62
2024/04/05 03:52:54;;;;;;;13.17;3.33;;;10.00;99.90;;;;;;5042992;28;20037;-62
2024/04/05 03:55:39;;;;;;;19.40;3.33;;;10.00;99.90;;;;;;5042853;28;20223;-62
2024/04/05 03:58:25;;;;;;;19.98;3.17;;;10.00;99.90;;;;;;5049192;28;20032;-63
2024/04/05 04:01:11;;;;;;;15.85;3.45;;;9.90;99.90;;;;;;5050572;28;20603;-62
2024/04/05 04:03:57;;;;;;;15.30;3.05;;;9.90;99.90;;;;;;5049539;28;20068;-62
2024/04/05 04:06:44;;;;;;;20.75;3.65;;;9.90;99.90;;;;;;5045157;28;20116;-62
2024/04/05 04:09:29;;;;;;;18.15;3.65;;;9.90;99.90;;;;;;5046405;28;20112;-62
2024/04/05 04:12:15;;;;;;;12.60;2.80;;;9.90;99.90;;;;;;5046501;28;20033;-62
2024/04/05 04:15:01;;;;;;;17.42;2.72;;;10.00;99.90;;;;;;5050926;28;20074;-62
2024/04/05 04:17:47;;;;;;;14.80;3.22;;;10.00;99.90;;;;;;5051063;28;20045;-62
2024/04/05 04:20:33;;;;;;;13.70;2.70;;;10.00;99.90;;;;;;5045335;28;20037;-62
2024/04/05 04:23:19;;;;;;;14.80;2.75;;;10.00;99.90;;;;;;5050129;28;20033;-62
2024/04/05 04:26:05;;;;;;;15.98;2.97;;;10.00;99.90;;;;;;5046309;28;20033;-63
2024/04/05 04:28:51;;;;;;;18.58;2.45;;;9.90;99.90;;;;;;5052482;28;20040;-62
2024/04/05 04:31:39;;;;;;;13.25;3.25;;;9.90;99.90;;;;;;5040828;28;20065;-62
2024/04/05 04:34:25;;;;;;;23.88;3.30;;;9.90;99.90;;;;;;5049336;28;20040;-62
2024/04/05 04:37:11;;;;;;;10.73;2.85;;;10.00;99.90;;;;;;5046360;28;20516;-62
2024/04/05 04:39:57;;;;;;;12.70;3.05;;;10.00;99.90;;;;;;5049334;28;20036;-63
2024/04/05 04:42:43;;;;;;;13.00;3.70;;;10.10;99.90;;;;;;5045292;28;20112;-63
2024/04/05 04:45:29;;;;;;;17.07;3.30;;;10.00;99.90;;;;;;5044071;28;20060;-62
2024/04/05 04:48:14;;;;;;;12.82;3.20;;;10.10;99.90;;;;;;5045065;28;20067;-62
2024/04/05 04:51:00;;;;;;;18.20;3.80;;;10.10;99.90;;;;;;5045590;28;20047;-62
2024/04/05 04:53:46;;;;;;;23.70;5.18;;;10.10;99.90;;;;;;5048858;28;20033;-63
2024/04/05 04:56:32;;;;;;;10.73;2.90;;;10.00;99.90;;;;;;5048381;28;20118;-62
2024/04/05 04:59:18;;;;;;;14.98;4.03;;;10.00;99.90;;;;;;5045112;28;20037;-62
2024/04/05 05:02:04;;;;;;;22.20;4.80;;;9.90;99.90;;;;;;5049952;28;20047;-62
2024/04/05 05:04:50;;;;;;;17.85;5.07;;;9.90;99.90;;;;;;5044159;28;20616;-62
2024/04/05 05:07:36;;;;;;;34.37;12.60;;;9.90;99.90;;;;;;5048561;28;20072;-63
2024/04/05 05:10:22;;;;;;;21.95;5.38;;;9.80;99.90;;;;;;5042438;28;20441;-62
2024/04/05 05:13:12;;;;;;;13.63;4.23;;;9.90;99.90;;;;;;5051674;28;20032;-62
2024/04/05 05:15:58;;;;;;;17.13;4.95;;;9.90;99.90;;;;;;5044613;28;20041;-62
2024/04/05 05:18:45;;;;;;;23.33;6.00;;;9.90;99.90;;;;;;5050727;28;20064;-62
2024/04/05 05:21:34;;;;;;;13.52;4.10;;;9.90;99.90;;;;;;5047169;28;20033;-62
2024/04/05 05:24:20;;;;;;;15.05;2.97;;;9.90;99.90;;;;;;5046607;28;20098;-63
2024/04/05 05:27:06;;;;;;;15.30;2.85;;;9.90;99.90;;;;;;5045437;28;20039;-62
2024/04/05 05:29:52;;;;;;;20.08;3.83;;;9.90;99.90;;;;;;5042660;28;20025;-63
2024/04/05 05:32:38;;;;;;;9.75;2.72;;;9.90;99.90;;;;;;5051531;28;20144;-62
2024/04/05 05:35:24;;;;;;;11.80;2.30;;;9.90;99.90;;;;;;5042519;28;20060;-62
2024/04/05 05:38:10;;;;;;;14.65;2.78;;;10.00;99.90;;;;;;5045564;28;20025;-62
2024/04/05 05:40:55;;;;;;;14.48;2.47;;;10.00;99.90;;;;;;5042315;28;20162;-62
2024/04/05 05:43:41;;;;;;;15.80;2.25;;;10.00;99.90;;;;;;5045068;28;20543;-62
2024/04/05 05:46:27;;;;;;;13.00;2.67;;;10.10;99.90;;;;;;5041885;28;20048;-62
2024/04/05 05:49:13;;;;;;;13.38;1.98;;;10.10;99.90;;;;;;5043660;28;20036;-62
2024/04/05 05:51:59;;;;;;;8.10;1.95;;;10.10;99.90;;;;;;5043249;28;20227;-62
2024/04/05 05:54:45;;;;;;;13.98;2.13;;;10.10;99.90;;;;;;5041277;28;20040;-61
2024/04/05 05:57:30;;;;;;;13.18;2.50;;;10.20;99.90;;;;;;5045841;28;20670;-62
2024/04/05 06:00:17;;;;;;;10.05;1.80;;;10.30;99.90;;;;;;5042533;28;20033;-63
2024/04/05 06:03:03;;;;;;;13.05;4.43;;;10.30;99.90;;;;;;5043388;28;20500;-62
2024/04/05 06:05:50;;;;;;;11.75;2.53;;;10.30;99.90;;;;;;5040885;28;20045;-62
2024/04/05 06:08:39;;;;;;;;;;;10.40;99.90;;;;;;5043700;28;20154;-62
2024/04/05 06:11:24;;;;;;;9.75;2.03;;;10.40;99.90;;;;;;5043958;28;20144;-62
2024/04/05 06:14:10;;;;;;;13.35;2.33;;;10.50;99.90;;;;;;5043413;28;20136;-62
2024/04/05 06:16:57;;;;;;;11.20;1.98;;;10.50;99.90;;;;;;5041545;28;20097;-62
2024/04/05 06:19:43;;;;;;;10.20;2.50;;;10.60;99.90;;;;;;5043190;28;20515;-62
2024/04/05 06:22:29;;;;;;;9.85;2.00;;;10.60;99.90;;;;;;5045132;28;20398;-62
2024/04/05 06:25:15;;;;;;;6.72;2.03;;;10.80;99.90;;;;;;5042268;28;20557;-63
2024/04/05 06:28:01;;;;;;;9.38;2.65;;;10.90;99.90;;;;;;5043451;28;20482;-63
2024/04/05 06:30:47;;;;;;;12.68;2.95;;;11.10;99.90;;;;;;5043078;28;20025;-64
2024/04/05 06:33:33;;;;;;;12.65;2.05;;;11.20;99.90;;;;;;5044889;28;20045;-63
2024/04/05 06:36:18;;;;;;;10.60;2.40;;;11.10;99.90;;;;;;5041685;28;20437;-62
2024/04/05 06:39:04;;;;;;;9.50;2.00;;;11.10;99.90;;;;;;5043223;28;20032;-62
2024/04/05 06:41:50;;;;;;;6.03;1.50;;;11.00;99.90;;;;;;5044230;28;20119;-62
2024/04/05 06:44:39;;;;;;;10.23;2.13;;;11.00;99.90;;;;;;5047552;28;20045;-63
2024/04/05 06:47:24;;;;;;;12.60;2.10;;;11.00;99.90;;;;;;5043540;28;20607;-62
2024/04/05 06:50:11;;;;;;;11.38;1.80;;;11.00;99.90;;;;;;5045456;28;20032;-63
2024/04/05 06:52:59;;;;;;;11.85;2.28;;;11.10;99.90;;;;;;5046070;28;20029;-63
2024/04/05 06:55:48;;;;;;;10.90;2.03;;;11.10;99.90;;;;;;5047019;28;20041;-63
2024/04/05 06:58:34;;;;;;;16.98;3.13;;;11.20;99.90;;;;;;5044100;28;20060;-63
2024/04/05 07:01:20;;;;;;;13.30;2.08;;;11.20;99.90;;;;;;5040807;28;20041;-63
2024/04/05 07:04:06;;;;;;;8.07;1.88;;;11.20;99.90;;;;;;5043402;28;20120;-62
2024/04/05 07:06:55;;;;;;;11.43;1.87;;;11.20;99.90;;;;;;5043826;28;20048;-63
2024/04/05 07:09:43;;;;;;;10.43;1.92;;;11.20;99.90;;;;;;5042303;28;20385;-63
2024/04/05 07:12:28;;;;;;;11.35;1.70;;;11.10;99.90;;;;;;5042654;28;20543;-62
2024/04/05 07:15:14;;;;;;;12.57;2.00;;;11.10;99.90;;;;;;5044068;28;20028;-63
2024/04/05 07:18:00;;;;;;;7.45;1.80;;;11.20;99.90;;;;;;5044820;28;20033;-63
2024/04/05 07:20:46;;;;;;;10.10;2.13;;;11.30;99.90;;;;;;5044393;28;20040;-63
2024/04/05 07:23:32;;;;;;;6.70;1.63;;;11.60;99.90;;;;;;5040373;28;20060;-63
2024/04/05 07:26:18;;;;;;;9.10;1.83;;;12.30;99.90;;;;;;5040657;28;20744;-63
2024/04/05 07:29:05;;;;;;;11.20;1.13;;;12.70;99.90;;;;;;5046516;28;20032;-63
2024/04/05 07:31:51;;;;;;;7.50;2.03;;;12.80;99.90;;;;;;5047247;28;20401;-63
2024/04/05 07:34:37;;;;;;;7.03;1.33;;;13.10;99.90;;;;;;5048777;28;20056;-63
2024/04/05 07:37:23;;;;;;;17.60;2.20;;;13.20;99.90;;;;;;5042727;28;20036;-63
2024/04/05 07:40:09;;;;;;;6.03;1.23;;;13.00;99.90;;;;;;5046476;28;20061;-63
2024/04/05 07:42:55;;;;;;;5.30;1.52;;;12.90;99.90;;;;;;5047574;28;20043;-63
2024/04/05 07:45:41;;;;;;;4.88;1.25;;;12.90;99.90;;;;;;5044812;28;20037;-63
2024/04/05 07:48:27;;;;;;;7.18;1.52;;;13.00;99.90;;;;;;5049866;28;20041;-63
2024/04/05 07:51:13;;;;;;;6.03;1.55;;;13.40;99.90;;;;;;5046372;28;20063;-63
2024/04/05 07:53:59;;;;;;;5.87;1.40;;;13.80;99.90;;;;;;5048860;28;20041;-63
2024/04/05 07:56:45;;;;;;;5.38;1.08;;;14.20;99.90;;;;;;5044650;28;20033;-63
2024/04/05 07:59:31;;;;;;;5.53;1.48;;;14.20;99.90;;;;;;5046320;28;20048;-63
2024/04/05 08:02:17;;;;;;;10.40;2.03;;;14.20;99.90;;;;;;5046542;28;20028;-63
2024/04/05 08:05:03;;;;;;;4.75;1.27;;;14.00;99.90;;;;;;5043102;28;20068;-63
2024/04/05 08:07:49;;;;;;;4.47;1.40;;;13.90;99.90;;;;;;5049296;28;20064;-63
2024/04/05 08:10:35;;;;;;;8.32;1.30;;;13.80;99.90;;;;;;5043678;28;20279;-63
2024/04/05 08:13:21;;;;;;;8.60;1.65;;;13.70;99.90;;;;;;5046074;28;20268;-63
2024/04/05 08:16:07;;;;;;;4.80;1.20;;;13.50;99.90;;;;;;5046131;28;20039;-63
2024/04/05 08:18:54;;;;;;;4.57;1.50;;;13.50;99.90;;;;;;5041314;28;20116;-63
2024/04/05 08:21:40;;;;;;;2.25;1.00;;;13.50;99.90;;;;;;5043406;28;21026;-63
2024/04/05 08:24:26;;;;;;;4.68;1.27;;;13.70;99.90;;;;;;5047102;28;20076;-63
2024/04/05 08:27:12;;;;;;;2.88;1.00;;;14.00;99.90;;;;;;5048445;28;20056;-63
2024/04/05 08:29:58;;;;;;;5.83;1.73;;;14.30;99.90;;;;;;5045524;28;20406;-63
2024/04/05 08:32:44;;;;;;;4.80;1.60;;;14.50;99.90;;;;;;5044934;28;20040;-63
2024/04/05 08:35:30;;;;;;;4.38;1.10;;;14.30;99.90;;;;;;5044325;28;20283;-62
2024/04/05 08:38:16;;;;;;;3.40;1.13;;;14.20;99.90;;;;;;5047388;28;20040;-63
2024/04/05 08:41:11;;;;;;;5.90;1.10;;;14.30;99.90;;;;;;5045343;28;20045;-63
2024/04/05 08:43:59;;;;;;;6.72;1.20;;;14.20;99.90;;;;;;5044684;28;20033;-63
2024/04/05 08:46:45;;;;;;;5.50;1.02;;;14.20;99.90;;;;;;5044870;28;20417;-62
2024/04/05 08:49:33;;;;;;;4.15;1.00;;;14.10;99.90;;;;;;5047047;28;20029;-63
2024/04/05 08:52:19;;;;;;;7.22;1.27;;;14.10;99.90;;;;;;5045950;28;20051;-63
2024/04/05 08:55:06;;;;;;;6.13;1.17;;;14.20;99.90;;;;;;5041598;28;20083;-63
2024/04/05 08:57:52;;;;;;;;;;;14.30;99.90;;;;;;5043569;28;20041;-62
2024/04/05 09:00:39;;;;;;;6.82;1.33;;;14.40;99.90;;;;;;5042087;28;19917;-63
2024/04/05 09:03:25;;;;;;;5.57;1.55;;;14.50;99.90;;;;;;5045109;28;20051;-63
2024/04/05 09:06:10;;;;;;;4.03;1.17;;;14.70;99.90;;;;;;5044661;28;20056;-63
2024/04/05 09:08:59;;;;;;;3.83;1.00;;;14.90;99.90;;;;;;5046714;28;20660;-63
2024/04/05 09:11:45;;;;;;;4.80;1.40;;;14.90;99.90;;;;;;5044684;28;20087;-63
2024/04/05 09:14:31;;;;;;;7.00;1.15;;;15.10;99.90;;;;;;5047097;28;20572;-63
2024/04/05 09:17:17;;;;;;;3.35;1.55;;;15.30;99.90;;;;;;5044004;28;20037;-63
2024/04/05 09:20:09;;;;;;;6.78;1.30;;;15.20;99.90;;;;;;5040704;28;20036;-63
2024/04/05 09:22:59;;;;;;;3.88;1.40;;;15.20;99.90;;;;;;5044525;28;20500;-63
2024/04/05 09:25:45;;;;;;;4.30;1.40;;;15.30;99.90;;;;;;5041978;28;20041;-63
2024/04/05 09:28:31;;;;;;;5.35;1.13;;;15.30;99.90;;;;;;5046128;28;20114;-63
2024/04/05 09:31:18;;;;;;;5.95;1.30;;;15.20;99.90;;;;;;5042486;28;20104;-63
2024/04/05 09:34:06;;;;;;;5.55;1.30;;;15.10;99.90;;;;;;5046086;28;20029;-63
2024/04/05 09:36:53;;;;;;;6.55;1.42;;;14.80;99.90;;;;;;5044004;28;20478;-63
2024/04/05 09:39:39;;;;;;;5.97;1.30;;;14.70;99.90;;;;;;5042940;28;20025;-62
2024/04/05 09:42:27;;;;;;;4.95;1.30;;;14.80;99.90;;;;;;5043737;28;20052;-63
2024/04/05 09:45:13;;;;;;;6.22;1.55;;;14.80;99.90;;;;;;5042854;28;20441;-62
2024/04/05 09:47:59;;;;;;;10.95;1.60;;;14.80;99.90;;;;;;5042438;28;20118;-63
2024/04/05 09:50:48;;;;;;;7.97;1.40;;;14.70;99.90;;;;;;5044468;28;20092;-63
2024/04/05 09:53:40;;;;;;;3.38;1.38;;;14.40;99.90;;;;;;5043035;28;20111;-63
2024/04/05 09:56:27;;;;;;;4.50;1.58;;;14.20;99.90;;;;;;5042991;28;20111;-62
2024/04/05 09:59:25;;;;;;;8.68;1.63;;;14.20;99.90;;;;;;5043893;28;20469;-63
2024/04/05 10:02:12;;;;;;;4.70;1.42;;;14.10;99.90;;;;;;5042768;28;20037;-63
2024/04/05 10:04:58;;;;;;;10.32;2.28;;;14.10;99.90;;;;;;5037471;28;20036;-62
2024/04/05 10:07:45;;;;;;;4.80;1.73;;;14.20;99.90;;;;;;5045491;28;20390;-62
2024/04/05 10:10:34;;;;;;;9.73;2.22;;;14.40;99.90;;;;;;5041620;28;20052;-62
2024/04/05 10:13:27;;;;;;;8.75;2.00;;;14.40;99.90;;;;;;5042862;28;20474;-63
2024/04/05 10:16:23;;;;;;;4.07;1.48;;;14.40;99.90;;;;;;5042262;28;20037;-63
2024/04/05 10:19:12;;;;;;;5.40;1.38;;;14.40;99.90;;;;;;5045007;28;20029;-62
2024/04/05 10:22:19;;;;;;;6.43;1.80;;;14.50;99.90;;;;;;5043124;28;20044;-62
2024/04/05 10:25:07;;;;;;;7.60;1.88;;;14.60;99.90;;;;;;5042367;28;20068;-63
2024/04/05 10:27:54;;;;;;;7.75;1.90;;;14.60;99.90;;;;;;5042929;28;20120;-63
2024/04/05 10:30:39;;;;;;;4.57;1.67;;;14.70;99.90;;;;;;5039592;28;20037;-63
2024/04/05 10:33:26;;;;;;;7.80;1.60;;;14.90;99.90;;;;;;5040652;28;20037;-63
2024/04/05 10:36:12;;;;;;;4.60;1.60;;;15.10;99.90;;;;;;5040320;28;20033;-63
2024/04/05 10:39:03;;;;;;;8.23;1.58;;;15.20;99.90;;;;;;5041214;28;20959;-63
2024/04/05 10:41:49;;;;;;;5.93;1.40;;;15.20;99.90;;;;;;5040255;28;20068;-63
2024/04/05 10:44:35;;;;;;;6.88;1.80;;;15.40;99.90;;;;;;5044288;28;20037;-63
2024/04/05 10:47:21;;;;;;;8.57;1.65;;;15.40;99.90;;;;;;5040970;28;20084;-63
2024/04/05 10:50:08;;;;;;;7.00;2.20;;;15.50;99.90;;;;;;5040354;28;20037;-63
2024/04/05 10:52:54;;;;;;;4.53;1.60;;;15.50;99.90;;;;;;5045405;28;20608;-63
2024/04/05 10:55:40;;;;;;;8.48;1.52;;;15.60;99.90;;;;;;5039551;28;20040;-63
2024/04/05 10:58:26;;;;;;;11.77;2.22;;;15.70;99.90;;;;;;5043771;28;20599;-63
2024/04/05 11:01:14;;;;;;;10.35;2.35;;;15.60;99.90;;;;;;5037289;28;20048;-63
2024/04/05 11:04:00;;;;;;;4.32;1.67;;;15.70;99.90;;;;;;5042631;28;20033;-63
2024/04/05 11:06:46;;;;;;;7.13;1.70;;;15.90;99.90;;;;;;5040779;28;20048;-63
2024/04/05 11:09:35;;;;;;;8.67;1.97;;;16.00;99.90;;;;;;5043198;28;20033;-63
2024/04/05 11:12:21;;;;;;;4.72;1.98;;;15.90;99.90;;;;;;5041866;28;20049;-63
2024/04/05 11:15:07;;;;;;;7.05;2.13;;;15.90;99.90;;;;;;5041467;28;20120;-63
2024/04/05 11:18:01;;;;;;;10.80;2.30;;;15.80;99.90;;;;;;5038452;28;20056;-63
2024/04/05 11:20:50;;;;;;;9.55;2.05;;;15.70;99.90;;;;;;5038635;28;20041;-63
2024/04/05 11:23:36;;;;;;;7.18;1.95;;;15.70;99.90;;;;;;5043574;28;20036;-63
2024/04/05 11:26:30;;;;;;;5.05;1.60;;;15.80;99.90;;;;;;5039969;28;20484;-63
2024/04/05 11:29:17;;;;;;;5.43;2.08;;;15.80;99.90;;;;;;5041704;28;20497;-63
2024/04/05 11:32:03;;;;;;;;;;;15.70;99.90;;;;;;5038442;28;20482;-63
2024/04/05 11:34:49;;;;;;;7.75;2.08;;;15.70;99.90;;;;;;5041649;28;19936;-63
2024/04/05 11:37:35;;;;;;;7.32;1.67;;;15.60;99.90;;;;;;5038303;28;20808;-63
2024/04/05 11:40:20;;;;;;;8.73;2.10;;;15.40;99.90;;;;;;5039912;28;20583;-63
2024/04/05 11:43:08;;;;;;;8.73;2.25;;;15.30;99.90;;;;;;5044554;28;20041;-63
2024/04/05 11:45:55;;;;;;;9.88;2.95;;;15.20;99.90;;;;;;5037513;28;20033;-63
2024/04/05 11:48:42;;;;;;;;;;;15.30;99.90;;;;;;5045026;28;20025;-63
2024/04/05 11:51:27;;;;;;;5.82;2.05;;;15.30;99.90;;;;;;5035845;28;20049;-63
2024/04/05 11:54:13;;;;;;;12.25;2.28;;;15.20;99.90;;;;;;5028226;28;20033;-63
2024/04/05 11:56:59;;;;;;;11.70;1.63;;;15.40;99.90;;;;;;5039276;28;20029;-63
2024/04/05 11:59:45;;;;;;;19.77;2.10;;;15.60;99.90;;;;;;5042434;28;20029;-63
2024/04/05 12:02:31;;;;;;;3.43;1.27;;;15.70;99.90;;;;;;5041456;28;20113;-63
2024/04/05 12:05:17;;;;;;;8.40;2.07;;;15.50;99.90;;;;;;5036856;28;20092;-63
2024/04/05 12:08:03;;;;;;;4.00;1.10;;;15.30;99.90;;;;;;5044313;28;20799;-63
2024/04/05 12:10:49;;;;;;;3.77;1.20;;;15.20;99.90;;;;;;5041350;28;20421;-63
2024/04/05 12:13:35;;;;;;;6.57;1.80;;;15.10;99.90;;;;;;5043129;28;20112;-63
2024/04/05 12:16:21;;;;;;;3.78;1.58;;;15.00;99.90;;;;;;5045897;28;20068;-62
2024/04/05 12:19:07;;;;;;;4.83;1.17;;;14.90;99.90;;;;;;5042868;28;20033;-63
2024/04/05 12:21:53;;;;;;;7.15;1.33;;;14.80;99.90;;;;;;5041212;28;20287;-63
2024/04/05 12:24:39;;;;;;;4.40;1.20;;;14.70;99.90;;;;;;5046768;28;20064;-63
2024/04/05 12:27:25;;;;;;;4.70;1.23;;;14.70;99.90;;;;;;5044265;28;20590;-63
2024/04/05 12:30:11;;;;;;;6.18;1.30;;;14.70;99.90;;;;;;5041296;28;20076;-63
2024/04/05 12:32:57;;;;;;;8.23;1.40;;;14.80;99.90;;;;;;5044240;28;20064;-63
2024/04/05 12:35:53;;;;;;;7.72;1.60;;;14.90;99.90;;;;;;5042284;28;20053;-63
2024/04/05 12:38:39;;;;;;;4.85;1.63;;;14.90;99.90;;;;;;5045460;28;20108;-63
2024/04/05 12:41:25;;;;;;;5.93;1.65;;;14.90;99.90;;;;;;5046373;28;20037;-63
2024/04/05 12:44:11;;;;;;;5.03;1.63;;;14.90;99.90;;;;;;5043483;28;20033;-63
2024/04/05 12:46:57;;;;;;;5.28;1.40;;;15.00;99.90;;;;;;5041190;28;20053;-63
2024/04/05 12:49:43;;;;;;;5.30;1.23;;;15.00;99.90;;;;;;5045139;28;20025;-63
2024/04/05 12:52:30;;;;;;;9.07;1.20;;;15.10;99.90;;;;;;5044801;28;20033;-63
2024/04/05 12:55:16;;;;;;;4.25;1.30;;;15.30;99.90;;;;;;5045491;28;20029;-63
2024/04/05 12:58:03;;;;;;;;;;;15.40;99.90;;;;;;5043804;28;20033;-63
2024/04/05 13:00:50;;;;;;;11.80;2.35;;;15.60;99.90;;;;;;5039888;28;19912;-63
2024/04/05 13:03:36;;;;;;;5.65;1.20;;;15.80;99.90;;;;;;5045540;28;20072;-63
2024/04/05 13:06:22;;;;;;;8.82;1.42;;;15.90;99.90;;;;;;5041756;28;20581;-63
2024/04/05 13:09:11;;;;;;;6.60;1.75;;;15.90;99.90;;;;;;5045115;28;20095;-63
2024/04/05 13:11:57;;;;;;;3.95;1.45;;;16.00;99.90;;;;;;5040396;28;20095;-63
2024/04/05 13:14:43;;;;;;;3.88;1.35;;;15.90;99.90;;;;;;5045773;28;20052;-63
2024/04/05 13:17:29;;;;;;;7.00;1.33;;;15.80;99.90;;;;;;5046975;28;20033;-63
2024/04/05 13:20:15;;;;;;;5.75;1.85;;;15.70;99.90;;;;;;5042035;28;20052;-63
2024/04/05 13:23:01;;;;;;;6.88;1.38;;;15.60;99.90;;;;;;5046933;28;20043;-63
2024/04/05 13:25:47;;;;;;;3.33;1.75;;;15.60;99.90;;;;;;5043667;28;20036;-63
2024/04/05 13:28:33;;;;;;;6.07;1.48;;;15.70;99.90;;;;;;5046859;28;20159;-63
2024/04/05 13:31:23;;;;;;;6.30;2.08;;;15.60;99.90;;;;;;5039332;28;20033;-63
2024/04/05 13:34:09;;;;;;;5.60;1.80;;;15.60;99.90;;;;;;5045566;28;20071;-63
2024/04/05 13:36:56;;;;;;;6.47;1.60;;;15.50;99.90;;;;;;5041181;28;20033;-63
2024/04/05 13:39:42;;;;;;;5.88;1.50;;;15.40;99.90;;;;;;5045022;28;20047;-63
2024/04/05 13:42:28;;;;;;;4.55;1.40;;;15.50;99.90;;;;;;5044051;28;20052;-63
2024/04/05 13:45:14;;;;;;;4.05;1.60;;;15.50;99.90;;;;;;5041818;28;20474;-63
2024/04/05 13:48:00;;;;;;;2.95;1.35;;;15.50;99.90;;;;;;5044654;28;20029;-63
2024/04/05 13:50:46;;;;;;;3.85;1.73;;;15.60;99.90;;;;;;5041897;28;20040;-63
2024/04/05 13:53:32;;;;;;;4.55;1.30;;;15.70;99.90;;;;;;5044091;28;20029;-63
2024/04/05 13:56:18;;;;;;;5.32;1.25;;;15.70;99.90;;;;;;5041005;28;20120;-63
2024/04/05 13:59:04;;;;;;;5.13;1.42;;;15.80;99.90;;;;;;5045564;28;20040;-63
2024/04/05 14:01:50;;;;;;;5.35;2.08;;;15.80;99.90;;;;;;5040627;28;20047;-63
2024/04/05 14:04:36;;;;;;;2.78;1.30;;;15.70;99.90;;;;;;5043598;28;20049;-63
2024/04/05 14:07:22;;;;;;;4.65;1.40;;;15.70;99.90;;;;;;5042442;28;20044;-63
2024/04/05 14:10:08;;;;;;;5.28;1.38;;;15.70;99.90;;;;;;5041001;28;20033;-63
2024/04/05 14:12:53;;;;;;;3.25;1.30;;;15.60;99.90;;;;;;5044380;28;20029;-63
2024/04/05 14:15:40;;;;;;;6.15;1.35;;;15.70;99.90;;;;;;5042400;28;20029;-63
2024/04/05 14:18:27;;;;;;;4.70;1.38;;;15.70;99.90;;;;;;5044155;28;20047;-63
2024/04/05 14:21:13;;;;;;;4.60;0.93;;;15.70;99.90;;;;;;5041431;28;20037;-63
2024/04/05 14:23:59;;;;;;;3.37;1.13;;;15.60;99.90;;;;;;5043497;28;20507;-63